Terminal Aerodrome Forecast
Issued by NWS

Home | Current Version | Previous Version | Text Only | Print | Product List | Glossary On
Versions: 1 2 3 4 5 6 7 8 9 10 11 12
000
FTUS42 TJSJ 290500 RRA
TAFNCM
TAF
TNCM 290541Z 2906/3006 09010KT P6SM FEW020
      TEMPO 2906/2908 4SM SHRA BKN015
     FM291300 11012KT P6SM SCT022=

USA.gov is the U.S. government's official web portal to all federal, state and local government web resources and services.